Alanya, Turkey
Current Conditions -  °F | °C
As of 4:50 PM on Thursday 23 Oct 2014 (Local Time) from LTAI Reporting Station
Broken Clouds Broken Clouds  
Wind Chill: 20°   Ceiling: 3000
Heat Index: 20°   Visibility: 6mi
Dew Point: 17°   Wind: 9mph
Humidity: 83%   Direction: 80°E
Pressure: 29.91"   Gusts: NA
Location:  36.56°N, 32°E
Report Text: LTAI 231350Z 08008KT 050V130 9999 FEW015CB BKN030 20/17 Q1013 NOSIG
Loading
Personal Weather Stations






























Interactive Weather Map
Tropical Storm Tracking
New forecast layout! Learn more

10-Day Weather Forecast

Advertisements
Track Severe Weather on mobile